Port Jefferson Station, New York
Current Conditions -  °F | °C
As of 1:56 PM on Tuesday 21 Oct 2014 (Local Time) from KISP Reporting Station
Broken Clouds Broken Clouds  
Wind Chill: 66°   Ceiling: 6500
Heat Index: 66°   Visibility: 10mi
Dew Point: 51°   Wind: 9mph
Humidity: 59%   Direction: 120°ESE
Pressure: 29.84"   Gusts: NA
Location:  40.93°N, 73.05°W
Report Text: KISP 211756Z 12008KT 10SM FEW040 BKN065 BKN110 19/11 A2984 RMK AO2 SLP106 T01890106 10200 20111 58015
Loading
Personal Weather Stations






























Interactive Weather Map
Tropical Storm Tracking
New forecast layout! Learn more

10-Day Weather Forecast

Advertisements
Track Severe Weather on mobile